Arkansas Post National Memor, Arkansas
Current Conditions -  °F | °C
As of 10:16 PM on Monday 22 Dec 2014 (Local Time) from KPBF Reporting Station
Moderate Fog Moderate Fog  
Wind Chill: 51°   Ceiling: 400
Heat Index: 51°   Visibility: 0.25mi
Dew Point: 50°   Wind: 0mph
Humidity: 96%   Direction: NA
Pressure: 29.66"   Gusts: NA
Location:  34.1564°N, 91.3915°W
Report Text: KPBF 230416Z AUTO 00000KT 1/4SM FG BKN004 OVC065 11/10 A2966 RMK AO2 T01060100
Loading
Personal Weather Stations






























Interactive Weather Map New forecast layout! Learn more

10-Day Weather Forecast

Advertisements
Track Severe Weather on mobile